Terminal Aerodrome Forecast
Issued by NWS

Home | Current Version | Previous Version | Text Only | Print | Product List | Glossary On
Versions: 1 2 3 4 5 6 7 8 9 10 11 12 13 14 15 16 17 18 19 20
000
FTAK31 PAJN 202300
TAFAWG
TAF
PAWG 202340Z 2100/2124 26006KT P6SM -SHRA BKN025 OVC050
     FM210600 10005KT P6SM VCSH BKN060
     FM211200 VRB04KT P6SM FEW005 BKN070
     FM211600 10008KT P6SM -RA BKN030 OVC060
     FM212000 11014G22KT P6SM -RA SCT020 OVC050
      AMD LTD TO CLD VIS AND WIND 2106/2115=

USA.gov is the U.S. government's official web portal to all federal, state and local government web resources and services.